createdAt,value
2023-02-12T00:00:36.244Z,36.03
2023-02-12T00:03:03.761Z,34.67
2023-02-12T00:05:32.110Z,32.20
2023-02-12T00:08:00.930Z,37.17
2023-02-12T00:10:28.611Z,31.87
2023-02-12T00:12:56.096Z,31.40
2023-02-12T00:15:23.633Z,29.83
2023-02-12T00:17:51.288Z,30.47
2023-02-12T00:20:19.000Z,33.20
2023-02-12T00:22:46.533Z,32.47
2023-02-12T00:25:15.484Z,33.27
2023-02-12T00:27:42.947Z,34.03
2023-02-12T00:30:10.759Z,34.03
2023-02-12T00:32:38.252Z,32.53
2023-02-12T00:35:05.916Z,33.30
2023-02-12T00:37:33.398Z,29.67
2023-02-12T00:40:00.889Z,30.57
2023-02-12T00:42:29.826Z,30.90
2023-02-12T00:44:57.336Z,30.97
2023-02-12T00:47:24.796Z,31.20
2023-02-12T00:49:52.226Z,30.03
2023-02-12T00:52:19.688Z,32.83
2023-02-12T00:54:47.117Z,33.77
2023-02-12T00:57:14.926Z,31.00
2023-02-12T00:59:43.716Z,33.03
2023-02-12T01:02:11.213Z,31.20
2023-02-12T01:04:38.862Z,30.07
2023-02-12T01:07:06.382Z,33.23
2023-02-12T01:09:34.925Z,32.93
2023-02-12T01:12:02.400Z,32.10
2023-02-12T01:14:30.514Z,30.10
2023-02-12T01:16:59.371Z,29.73
2023-02-12T01:19:27.765Z,34.07
2023-02-12T01:21:55.244Z,30.50
2023-02-12T01:24:22.676Z,30.27
2023-02-12T01:26:50.152Z,29.23
2023-02-12T01:29:17.708Z,32.23
2023-02-12T01:31:45.308Z,29.67
2023-02-12T01:34:14.241Z,32.53
2023-02-12T01:36:41.663Z,32.70
2023-02-12T01:39:09.194Z,29.40
2023-02-12T01:41:40.056Z,32.53
2023-02-12T01:44:09.157Z,28.23
2023-02-12T01:46:36.851Z,29.97
2023-02-12T01:49:05.712Z,30.80
2023-02-12T01:51:34.993Z,27.33
2023-02-12T01:54:04.101Z,30.17
2023-02-12T01:56:32.260Z,31.57
2023-02-12T01:58:59.801Z,31.23
2023-02-12T02:01:28.375Z,31.00
2023-02-12T02:03:58.428Z,28.77
2023-02-12T02:06:27.519Z,28.77
2023-02-12T02:08:56.548Z,29.17
2023-02-12T02:11:41.584Z,28.40
2023-02-12T02:14:26.919Z,29.30
2023-02-12T02:16:58.152Z,28.07
2023-02-12T02:19:36.541Z,30.17
2023-02-12T02:22:14.462Z,28.47
2023-02-12T02:25:03.376Z,27.20
2023-02-12T02:27:39.516Z,29.13
2023-02-12T02:30:30.195Z,28.03
2023-02-12T02:32:59.889Z,26.43
2023-02-12T02:35:29.909Z,30.10
2023-02-12T02:38:02.132Z,27.93
2023-02-12T02:40:33.117Z,25.73
2023-02-12T02:43:03.641Z,29.70
2023-02-12T02:45:35.358Z,25.57
2023-02-12T02:48:05.917Z,28.00
2023-02-12T02:50:35.758Z,27.83
2023-02-12T02:53:04.774Z,31.77
2023-02-12T02:55:34.117Z,27.90
2023-02-12T02:58:02.982Z,29.67
2023-02-12T03:00:33.913Z,31.07
2023-02-12T03:03:03.698Z,29.40
2023-02-12T03:05:33.206Z,28.27
2023-02-12T03:08:04.046Z,27.77
2023-02-12T03:10:33.128Z,25.87
2023-02-12T03:13:03.158Z,28.53
2023-02-12T03:15:33.975Z,27.30
2023-02-12T03:18:02.902Z,24.87
2023-02-12T03:20:32.034Z,27.60
2023-02-12T03:23:02.517Z,25.57
2023-02-12T03:25:34.168Z,24.33
2023-02-12T03:28:03.865Z,29.33
2023-02-12T03:30:39.282Z,27.07
2023-02-12T03:33:14.153Z,27.60
2023-02-12T03:35:43.661Z,26.97
2023-02-12T03:38:16.970Z,25.97
2023-02-12T03:40:47.441Z,29.60
2023-02-12T03:43:20.538Z,26.40
2023-02-12T03:45:51.343Z,28.73
2023-02-12T03:48:23.284Z,30.40
2023-02-12T03:50:53.500Z,25.33
2023-02-12T03:53:20.954Z,26.97
2023-02-12T03:55:49.979Z,27.03
2023-02-12T03:58:20.292Z,28.83
2023-02-12T04:00:49.304Z,28.87
2023-02-12T04:03:16.770Z,31.03
2023-02-12T04:05:44.285Z,29.13
2023-02-12T04:08:13.403Z,31.20
2023-02-12T04:10:44.050Z,27.57
2023-02-12T04:13:13.076Z,30.27
2023-02-12T04:15:47.759Z,31.83
2023-02-12T04:18:20.095Z,32.10
2023-02-12T04:20:52.765Z,30.50
2023-02-12T04:23:25.788Z,33.93
2023-02-12T04:25:57.222Z,33.40
2023-02-12T04:28:35.604Z,33.43
2023-02-12T04:31:05.606Z,33.33
2023-02-12T04:33:36.364Z,31.67
2023-02-12T04:36:07.537Z,29.27
2023-02-12T04:38:37.614Z,31.07
2023-02-12T04:41:06.096Z,32.00
2023-02-12T04:43:36.395Z,33.70
2023-02-12T04:46:04.523Z,33.17
2023-02-12T04:48:32.084Z,30.07
2023-02-12T04:51:02.140Z,30.23
2023-02-12T04:53:29.989Z,31.40
2023-02-12T04:55:57.809Z,31.37
2023-02-12T04:58:25.412Z,29.70
2023-02-12T05:00:52.857Z,27.93
2023-02-12T05:03:20.435Z,33.47
2023-02-12T05:05:47.920Z,28.60
2023-02-12T05:08:16.727Z,30.23
2023-02-12T05:10:44.367Z,30.80
2023-02-12T05:13:12.239Z,25.50
2023-02-12T05:15:39.947Z,26.77
2023-02-12T05:18:07.528Z,24.03
2023-02-12T05:20:34.996Z,28.33
2023-02-12T05:23:03.457Z,26.77
2023-02-12T05:25:32.506Z,29.67
2023-02-12T05:28:00.245Z,24.23
2023-02-12T05:30:28.731Z,30.53
2023-02-12T05:32:56.287Z,28.63
2023-02-12T05:35:23.758Z,29.00
2023-02-12T05:37:51.250Z,27.83
2023-02-12T05:40:18.881Z,27.83
2023-02-12T05:42:47.696Z,29.13
2023-02-12T05:45:15.160Z,31.53
2023-02-12T05:47:42.677Z,30.30
2023-02-12T05:50:10.511Z,29.37
2023-02-12T05:52:38.121Z,30.77
2023-02-12T05:55:05.941Z,28.47
2023-02-12T05:57:33.405Z,33.03
2023-02-12T06:00:03.206Z,27.90
2023-02-12T06:02:40.045Z,30.67
2023-02-12T06:05:07.700Z,38.97
2023-02-12T06:07:35.154Z,52.13
2023-02-12T06:10:03.441Z,44.90
2023-02-12T06:12:30.949Z,35.60
2023-02-12T06:14:58.430Z,33.73
2023-02-12T06:17:27.360Z,35.13
2023-02-12T06:19:54.852Z,37.03
2023-02-12T06:22:22.394Z,31.67
2023-02-12T06:24:49.816Z,31.73
2023-02-12T06:27:17.445Z,36.63
2023-02-12T06:29:45.037Z,34.07
2023-02-12T06:32:13.615Z,29.77
2023-02-12T06:34:42.534Z,35.53
2023-02-12T06:37:09.997Z,30.93
2023-02-12T06:39:37.551Z,34.43
2023-02-12T06:42:05.071Z,31.97
2023-02-12T06:44:32.561Z,32.47
2023-02-12T06:47:00.067Z,33.93
2023-02-12T06:49:28.578Z,34.03
2023-02-12T06:51:57.358Z,35.07
2023-02-12T06:54:24.824Z,32.90
2023-02-12T06:56:52.279Z,31.67
2023-02-12T06:59:19.816Z,32.67
2023-02-12T07:01:47.421Z,34.47
2023-02-12T07:04:15.033Z,32.17
2023-02-12T07:06:42.637Z,36.20
2023-02-12T07:09:11.532Z,33.23
2023-02-12T07:11:39.521Z,35.07
2023-02-12T07:14:07.569Z,35.87
2023-02-12T07:16:35.919Z,35.17
2023-02-12T07:19:03.498Z,34.70
2023-02-12T07:21:31.989Z,34.13
2023-02-12T07:23:59.587Z,33.00
2023-02-12T07:26:28.861Z,35.13
2023-02-12T07:28:57.658Z,29.63
2023-02-12T07:31:25.383Z,22.23
2023-02-12T07:33:54.913Z,25.90
2023-02-12T07:36:22.455Z,22.70
2023-02-12T07:38:50.014Z,21.20
2023-02-12T07:41:18.405Z,21.13
2023-02-12T07:43:48.364Z,21.03
2023-02-12T07:46:17.507Z,21.70
2023-02-12T07:48:45.046Z,22.33
2023-02-12T07:51:13.500Z,20.87
2023-02-12T07:53:41.458Z,25.10
2023-02-12T07:56:09.851Z,21.83
2023-02-12T07:58:37.473Z,22.07
2023-02-12T08:01:13.962Z,24.33
2023-02-12T08:03:41.489Z,22.03
2023-02-12T08:06:09.977Z,19.03
2023-02-12T08:08:38.740Z,20.33
2023-02-12T08:11:06.747Z,19.40
2023-02-12T08:13:34.285Z,18.93
2023-02-12T08:16:02.178Z,21.30
2023-02-12T08:18:31.184Z,19.77
2023-02-12T08:21:02.157Z,21.27
2023-02-12T08:23:29.658Z,22.00
2023-02-12T08:26:05.330Z,23.57
2023-02-12T08:28:32.824Z,25.93
2023-02-12T08:31:01.575Z,25.53
2023-02-12T08:33:29.067Z,22.43
2023-02-12T08:36:03.022Z,23.63
2023-02-12T08:38:31.587Z,25.13
2023-02-12T08:41:02.112Z,25.30
2023-02-12T08:43:29.653Z,25.13
2023-02-12T08:46:02.299Z,27.03
2023-02-12T08:48:29.856Z,24.90
2023-02-12T08:50:57.319Z,28.47
2023-02-12T08:53:26.304Z,27.70
2023-02-12T08:55:54.130Z,24.87
2023-02-12T08:58:21.841Z,28.07
2023-02-12T09:00:49.355Z,39.27
2023-02-12T09:03:16.813Z,37.17
2023-02-12T09:05:44.262Z,31.03
2023-02-12T09:08:11.684Z,27.57
2023-02-12T09:10:42.031Z,39.07
2023-02-12T09:13:10.517Z,35.80
2023-02-12T09:15:38.200Z,42.67
2023-02-12T09:18:05.997Z,42.20
2023-02-12T09:20:33.988Z,44.70
2023-02-12T09:23:02.120Z,42.40
2023-02-12T09:25:29.693Z,42.40
2023-02-12T09:27:58.551Z,41.53
2023-02-12T09:30:26.086Z,38.43
2023-02-12T09:32:53.528Z,41.87
2023-02-12T09:35:21.009Z,39.10
2023-02-12T09:37:48.452Z,38.23
2023-02-12T09:40:19.850Z,42.47
2023-02-12T09:42:58.571Z,42.97
2023-02-12T09:45:29.153Z,41.80
2023-02-12T09:47:58.755Z,42.07
2023-02-12T09:50:32.906Z,49.83
2023-02-12T09:53:00.964Z,49.30
2023-02-12T09:55:30.601Z,43.77
2023-02-12T09:57:58.304Z,40.63
2023-02-12T10:00:31.025Z,39.93
2023-02-12T10:03:04.743Z,43.40
2023-02-12T10:05:36.359Z,38.47
2023-02-12T10:08:11.265Z,38.70
2023-02-12T10:10:46.970Z,41.13
2023-02-12T10:13:19.170Z,39.47
2023-02-12T10:15:53.325Z,35.20
2023-02-12T10:18:39.645Z,29.50
2023-02-12T10:21:12.910Z,27.13
2023-02-12T10:23:59.584Z,26.53
2023-02-12T10:26:30.657Z,30.13
2023-02-12T10:29:00.408Z,26.97
2023-02-12T10:31:31.900Z,27.63
2023-02-12T10:33:59.488Z,27.87
2023-02-12T10:36:35.606Z,26.77
2023-02-12T10:39:06.249Z,25.17
2023-02-12T10:41:36.734Z,25.40
2023-02-12T10:44:04.161Z,25.93
2023-02-12T10:46:33.017Z,24.83
2023-02-12T10:49:02.125Z,24.43
2023-02-12T10:51:42.305Z,22.80
2023-02-12T10:54:28.398Z,25.17
2023-02-12T10:56:56.768Z,26.33
2023-02-12T10:59:24.790Z,24.57
2023-02-12T11:01:53.775Z,27.40
2023-02-12T11:04:22.502Z,28.13
2023-02-12T11:06:58.329Z,25.70
2023-02-12T11:09:28.839Z,23.33
2023-02-12T11:11:56.325Z,24.93
2023-02-12T11:14:23.968Z,22.70
2023-02-12T11:16:54.672Z,24.20
2023-02-12T11:19:23.518Z,25.33
2023-02-12T11:21:51.351Z,23.17
2023-02-12T11:24:22.715Z,21.97
2023-02-12T11:26:50.289Z,22.80
2023-02-12T11:29:19.718Z,23.20
2023-02-12T11:32:00.919Z,24.93
2023-02-12T11:34:30.321Z,22.53
2023-02-12T11:36:58.361Z,24.20
2023-02-12T11:39:28.006Z,25.30
2023-02-12T11:41:57.258Z,23.33
2023-02-12T11:44:26.624Z,22.97
2023-02-12T11:46:56.402Z,20.50
2023-02-12T11:49:24.959Z,20.80
2023-02-12T11:51:53.883Z,20.67
2023-02-12T11:54:23.751Z,21.53
2023-02-12T11:56:51.419Z,21.80
2023-02-12T11:59:25.574Z,21.40
2023-02-12T12:01:55.043Z,20.53
2023-02-12T12:04:23.908Z,20.70
2023-02-12T12:06:53.227Z,21.40
2023-02-12T12:09:26.543Z,19.80
2023-02-12T12:11:58.493Z,18.80
2023-02-12T12:14:27.532Z,18.50
2023-02-12T12:17:14.777Z,18.83
2023-02-12T12:19:54.292Z,19.83
2023-02-12T12:22:29.218Z,23.00
2023-02-12T12:25:01.011Z,19.20
2023-02-12T12:28:02.154Z,21.33
2023-02-12T12:30:34.417Z,17.83
2023-02-12T12:33:04.708Z,16.73
2023-02-12T12:35:37.353Z,17.43
2023-02-12T12:38:07.674Z,20.30
2023-02-12T12:40:43.974Z,19.57
2023-02-12T12:43:13.248Z,19.17
2023-02-12T12:45:51.989Z,19.20
2023-02-12T12:48:24.632Z,17.40
2023-02-12T12:51:02.066Z,21.03
2023-02-12T12:53:37.835Z,18.33
2023-02-12T12:56:14.847Z,19.13
2023-02-12T12:58:49.667Z,20.10
2023-02-12T13:01:23.032Z,17.80
2023-02-12T13:03:59.281Z,18.33
2023-02-12T13:06:47.827Z,20.03
2023-02-12T13:09:23.385Z,18.73
2023-02-12T13:11:57.052Z,17.20
2023-02-12T13:14:29.733Z,16.10
2023-02-12T13:17:02.147Z,18.07
2023-02-12T13:19:37.733Z,15.97
2023-02-12T13:22:08.263Z,17.20
2023-02-12T13:24:38.998Z,18.57
2023-02-12T13:27:09.540Z,17.57
2023-02-12T13:29:39.521Z,14.97
2023-02-12T13:32:08.697Z,16.90
2023-02-12T13:34:36.994Z,16.30
2023-02-12T13:37:05.726Z,13.93
2023-02-12T13:39:34.542Z,13.17
2023-02-12T13:42:09.343Z,13.93
2023-02-12T13:44:41.748Z,14.10
2023-02-12T13:47:13.802Z,13.93
2023-02-12T13:49:47.081Z,14.70
2023-02-12T13:52:19.749Z,14.60
2023-02-12T13:54:53.145Z,14.03
2023-02-12T13:57:21.175Z,15.23
2023-02-12T13:59:50.933Z,15.23
2023-02-12T14:02:39.241Z,13.40
2023-02-12T14:05:16.284Z,16.33
2023-02-12T14:07:45.508Z,13.63
2023-02-12T14:10:20.943Z,14.53
2023-02-12T14:12:48.747Z,13.60
2023-02-12T14:15:26.675Z,11.63
2023-02-12T14:17:55.246Z,12.97
2023-02-12T14:20:25.058Z,11.47
2023-02-12T14:23:03.697Z,12.00
2023-02-12T14:25:33.317Z,11.23
2023-02-12T14:28:07.375Z,10.20
2023-02-12T14:30:39.141Z,9.67
2023-02-12T14:33:16.341Z,9.87
2023-02-12T14:35:44.174Z,9.50
2023-02-12T14:38:32.153Z,11.57
2023-02-12T14:41:34.198Z,9.07
2023-02-12T14:44:22.754Z,8.87
2023-02-12T14:46:52.778Z,8.37
2023-02-12T14:49:22.044Z,8.10
2023-02-12T14:51:54.320Z,9.60
2023-02-12T14:54:27.586Z,7.73
2023-02-12T14:56:55.569Z,7.73
2023-02-12T14:59:25.138Z,8.90
2023-02-12T15:01:54.586Z,8.97
2023-02-12T15:04:26.884Z,8.43
2023-02-12T15:06:56.085Z,9.17
2023-02-12T15:09:27.702Z,7.87
2023-02-12T15:12:04.510Z,8.00
2023-02-12T15:14:33.345Z,8.13
2023-02-12T15:17:04.618Z,8.40
2023-02-12T15:19:35.516Z,8.10
2023-02-12T15:22:03.111Z,8.57
2023-02-12T15:24:30.533Z,7.80
2023-02-12T15:26:59.402Z,7.97
2023-02-12T15:29:28.856Z,8.40
2023-02-12T15:31:57.787Z,8.20
2023-02-12T15:34:28.994Z,8.10
2023-02-12T15:36:57.941Z,7.27
2023-02-12T15:39:25.845Z,7.30
2023-02-12T15:41:53.339Z,8.00
2023-02-12T15:44:23.233Z,8.30
2023-02-12T15:46:58.053Z,7.40
2023-02-12T15:49:29.379Z,7.50
2023-02-12T15:51:57.476Z,7.17
2023-02-12T15:54:25.260Z,7.43
2023-02-12T15:56:52.752Z,6.93
2023-02-12T15:59:22.363Z,7.40
2023-02-12T16:01:53.756Z,7.40
2023-02-12T16:04:21.331Z,6.90
2023-02-12T16:06:50.955Z,6.67
2023-02-12T16:09:19.673Z,7.40
2023-02-12T16:11:48.132Z,7.70
2023-02-12T16:14:21.486Z,7.43
2023-02-12T16:16:50.198Z,6.77
2023-02-12T16:19:19.817Z,7.33
2023-02-12T16:21:48.594Z,8.50
2023-02-12T16:24:36.970Z,7.53
2023-02-12T16:27:09.174Z,9.37
2023-02-12T16:29:38.433Z,8.97
2023-02-12T16:32:05.974Z,8.70
2023-02-12T16:34:37.182Z,9.33
2023-02-12T16:37:24.740Z,9.10
2023-02-12T16:40:20.104Z,8.33
2023-02-12T16:43:02.103Z,8.73
2023-02-12T16:45:50.470Z,8.57
2023-02-12T16:48:20.337Z,8.80
2023-02-12T16:50:49.855Z,9.57
2023-02-12T16:53:26.657Z,9.73
2023-02-12T16:55:56.157Z,9.30
2023-02-12T16:58:24.807Z,11.33
2023-02-12T17:00:52.912Z,9.10
2023-02-12T17:03:20.658Z,9.53
2023-02-12T17:05:49.313Z,10.33
2023-02-12T17:08:18.349Z,10.13
2023-02-12T17:10:46.504Z,9.83
2023-02-12T17:13:16.086Z,9.60
2023-02-12T17:15:46.434Z,10.53
2023-02-12T17:18:14.187Z,10.10
2023-02-12T17:20:41.685Z,10.87
2023-02-12T17:23:10.996Z,11.37
2023-02-12T17:25:38.482Z,10.47
2023-02-12T17:28:06.168Z,10.03
2023-02-12T17:30:34.969Z,11.00
2023-02-12T17:33:03.413Z,11.93
2023-02-12T17:35:30.884Z,11.53
2023-02-12T17:37:58.285Z,10.93
2023-02-12T17:40:25.714Z,10.67
2023-02-12T17:42:53.282Z,11.17
2023-02-12T17:45:20.804Z,12.97
2023-02-12T17:47:49.821Z,11.27
2023-02-12T17:50:17.965Z,13.23
2023-02-12T17:52:45.664Z,10.93
2023-02-12T17:55:13.792Z,12.37
2023-02-12T17:57:41.409Z,12.80
2023-02-12T18:00:09.924Z,12.80
2023-02-12T18:02:40.186Z,14.97
2023-02-12T18:05:09.656Z,13.80
2023-02-12T18:07:37.428Z,12.57
2023-02-12T18:10:05.341Z,14.20
2023-02-12T18:12:33.244Z,14.90
2023-02-12T18:15:01.482Z,14.27
2023-02-12T18:17:29.167Z,13.97
2023-02-12T18:19:56.771Z,21.50
2023-02-12T18:22:25.617Z,21.33
2023-02-12T18:24:53.309Z,21.47
2023-02-12T18:27:20.738Z,16.47
2023-02-12T18:29:48.217Z,18.67
2023-02-12T18:32:16.134Z,14.70
2023-02-12T18:34:44.164Z,15.77
2023-02-12T18:37:13.276Z,13.67
2023-02-12T18:39:42.279Z,13.50
2023-02-12T18:42:09.833Z,13.53
2023-02-12T18:44:37.442Z,12.80
2023-02-12T18:47:04.941Z,11.97
2023-02-12T18:49:32.510Z,14.10
2023-02-12T18:52:01.123Z,15.43
2023-02-12T18:54:28.576Z,17.33
2023-02-12T18:56:57.460Z,16.07
2023-02-12T18:59:27.179Z,16.63
2023-02-12T19:01:55.270Z,13.67
2023-02-12T19:04:24.197Z,14.30
2023-02-12T19:06:52.917Z,16.13
2023-02-12T19:09:21.793Z,12.77
2023-02-12T19:11:50.288Z,12.90
2023-02-12T19:14:20.187Z,12.70
2023-02-12T19:16:47.757Z,14.50
2023-02-12T19:19:15.575Z,11.87
2023-02-12T19:21:43.468Z,14.40
2023-02-12T19:24:12.276Z,11.60
2023-02-12T19:26:39.948Z,12.10
2023-02-12T19:29:07.516Z,12.70
2023-02-12T19:31:37.158Z,11.03
2023-02-12T19:34:07.803Z,11.67
2023-02-12T19:36:36.150Z,11.30
2023-02-12T19:39:05.728Z,12.03
2023-02-12T19:41:35.741Z,11.70
2023-02-12T19:44:04.296Z,10.70
2023-02-12T19:46:32.003Z,10.80
2023-02-12T19:49:02.150Z,11.27
2023-02-12T19:51:30.548Z,11.70
2023-02-12T19:54:00.596Z,10.87
2023-02-12T19:56:28.080Z,11.87
2023-02-12T19:58:56.898Z,14.53
2023-02-12T20:01:24.943Z,13.83
2023-02-12T20:03:52.528Z,12.27
2023-02-12T20:06:22.107Z,11.97
2023-02-12T20:08:49.671Z,11.37
2023-02-12T20:11:18.118Z,12.27
2023-02-12T20:13:45.682Z,13.20
2023-02-12T20:16:15.763Z,13.83
2023-02-12T20:18:43.609Z,12.30
2023-02-12T20:21:11.823Z,12.10
2023-02-12T20:23:40.680Z,11.80
2023-02-12T20:26:09.390Z,10.17
2023-02-12T20:28:37.527Z,14.40
2023-02-12T20:31:11.817Z,11.00
2023-02-12T20:33:39.562Z,11.40
2023-02-12T20:36:07.907Z,11.60
2023-02-12T20:38:35.509Z,12.90
2023-02-12T20:41:05.334Z,15.00
2023-02-12T20:43:33.737Z,11.20
2023-02-12T20:46:04.826Z,14.70
2023-02-12T20:48:32.499Z,12.37
2023-02-12T20:51:03.478Z,12.43
2023-02-12T20:53:33.111Z,13.00
2023-02-12T20:56:06.592Z,12.13
2023-02-12T20:58:34.292Z,13.33
2023-02-12T21:01:05.542Z,14.13
2023-02-12T21:03:33.056Z,13.77
2023-02-12T21:06:00.560Z,14.07
2023-02-12T21:08:28.636Z,14.63
2023-02-12T21:11:00.229Z,13.77
2023-02-12T21:13:29.963Z,14.77
2023-02-12T21:16:04.541Z,16.53
2023-02-12T21:18:32.052Z,16.30
2023-02-12T21:21:02.831Z,17.53
2023-02-12T21:23:30.254Z,17.37
2023-02-12T21:26:02.515Z,14.30
2023-02-12T21:28:32.433Z,16.80
2023-02-12T21:31:06.442Z,18.30
2023-02-12T21:33:33.991Z,21.23
2023-02-12T21:36:03.365Z,22.03
2023-02-12T21:38:32.537Z,19.73
2023-02-12T21:41:06.652Z,15.93
2023-02-12T21:43:35.981Z,12.93
2023-02-12T21:46:03.610Z,13.93
2023-02-12T21:48:31.456Z,13.40
2023-02-12T21:50:59.377Z,14.93
2023-02-12T21:53:27.466Z,13.70
2023-02-12T21:55:55.426Z,14.00
2023-02-12T21:58:23.090Z,12.03
2023-02-12T22:00:52.040Z,12.90
2023-02-12T22:03:20.048Z,11.97
2023-02-12T22:05:47.530Z,12.77
2023-02-12T22:08:15.028Z,13.77
2023-02-12T22:10:42.454Z,13.57
2023-02-12T22:13:09.951Z,14.47
2023-02-12T22:15:37.588Z,13.97
2023-02-12T22:18:06.537Z,13.87
2023-02-12T22:20:33.984Z,14.33
2023-02-12T22:23:02.075Z,14.23
2023-02-12T22:25:29.542Z,17.23
2023-02-12T22:27:57.050Z,13.37
2023-02-12T22:30:24.510Z,12.90
2023-02-12T22:32:51.926Z,14.03
2023-02-12T22:35:21.004Z,13.70
2023-02-12T22:37:48.422Z,13.90
2023-02-12T22:40:16.518Z,17.60
2023-02-12T22:42:44.329Z,14.13
2023-02-12T22:45:11.831Z,15.83
2023-02-12T22:47:39.251Z,15.40
2023-02-12T22:50:07.543Z,14.63
2023-02-12T22:52:36.577Z,14.30
2023-02-12T22:55:04.644Z,16.30
2023-02-12T22:57:32.108Z,14.70
2023-02-12T22:59:59.816Z,14.27
2023-02-12T23:02:27.545Z,15.47
2023-02-12T23:04:55.104Z,14.60
2023-02-12T23:07:22.592Z,13.67
2023-02-12T23:09:52.461Z,13.43
2023-02-12T23:12:19.883Z,16.20
2023-02-12T23:14:47.346Z,14.70
2023-02-12T23:17:14.774Z,13.60
2023-02-12T23:19:42.416Z,14.73
2023-02-12T23:22:09.914Z,14.67
2023-02-12T23:24:37.421Z,14.80
2023-02-12T23:27:06.279Z,15.17
2023-02-12T23:29:34.245Z,13.97
2023-02-12T23:32:02.244Z,14.30
2023-02-12T23:34:29.670Z,14.87
2023-02-12T23:36:57.130Z,15.80
2023-02-12T23:39:24.698Z,14.50
2023-02-12T23:41:52.151Z,15.83
2023-02-12T23:44:20.986Z,16.03
2023-02-12T23:46:51.899Z,14.97
2023-02-12T23:49:19.741Z,16.50
2023-02-12T23:51:47.321Z,14.07
2023-02-12T23:54:15.010Z,16.93
2023-02-12T23:56:42.514Z,16.80
2023-02-12T23:59:09.954Z,15.17
